Terminal Aerodrome Forecast
Issued by NWS

Home | Current Version | Previous Version | Text Only | Print | Product List | Glossary On
Versions: 1 2 3 4 5 6 7 8 9 10 11 12 13 14 15 16 17 18 19 20
000
FTUS43 KGRB 011500 AAA
TAFAUW
TAF AMD
KAUW 011511Z 0115/0212 05012G20KT P6SM -SN BKN025
      TEMPO 0115/0117 SCT025 BKN080
     FM011700 04011G18KT P6SM SCT025 BKN070
     FM012300 01009KT P6SM SCT030 BKN100
     FM020500 35006KT P6SM FEW100=

USA.gov is the U.S. government's official web portal to all federal, state and local government web resources and services.